sensor_id;sensor_type;location;lat;lon;timestamp;pressure;altitude;pressure_sealevel;temperature;humidity
11085;BME280;5596;46.826;8.650;2023-05-20T00:02:21;96195.38;;;9.94;100.00
11085;BME280;5596;46.826;8.650;2023-05-20T00:04:48;96190.31;;;9.98;100.00
11085;BME280;5596;46.826;8.650;2023-05-20T00:07:14;96197.97;;;10.01;100.00
11085;BME280;5596;46.826;8.650;2023-05-20T00:09:41;96189.38;;;10.04;100.00
11085;BME280;5596;46.826;8.650;2023-05-20T00:12:09;96197.03;;;10.07;100.00
11085;BME280;5596;46.826;8.650;2023-05-20T00:14:36;96194.94;;;10.09;100.00
11085;BME280;5596;46.826;8.650;2023-05-20T00:17:02;96197.63;;;10.09;100.00
11085;BME280;5596;46.826;8.650;2023-05-20T00:19:29;96195.53;;;10.11;100.00
11085;BME280;5596;46.826;8.650;2023-05-20T00:21:56;96195.53;;;10.11;100.00
11085;BME280;5596;46.826;8.650;2023-05-20T00:24:23;96200.69;;;10.12;100.00
11085;BME280;5596;46.826;8.650;2023-05-20T00:26:50;96207.97;;;10.12;100.00
11085;BME280;5596;46.826;8.650;2023-05-20T00:29:20;96203.38;;;10.12;100.00
11085;BME280;5596;46.826;8.650;2023-05-20T00:31:47;96197.19;;;10.12;100.00
11085;BME280;5596;46.826;8.650;2023-05-20T00:34:14;96201.28;;;10.14;100.00
11085;BME280;5596;46.826;8.650;2023-05-20T00:36:40;96201.50;;;10.13;100.00
11085;BME280;5596;46.826;8.650;2023-05-20T00:39:08;96196.69;;;10.15;100.00
11085;BME280;5596;46.826;8.650;2023-05-20T00:41:35;96197.75;;;10.14;100.00
11085;BME280;5596;46.826;8.650;2023-05-20T00:44:02;96199.72;;;10.07;100.00
11085;BME280;5596;46.826;8.650;2023-05-20T00:46:30;96193.72;;;10.05;100.00
11085;BME280;5596;46.826;8.650;2023-05-20T00:48:57;96191.53;;;10.02;100.00
11085;BME280;5596;46.826;8.650;2023-05-20T00:51:24;96201.59;;;9.95;100.00
11085;BME280;5596;46.826;8.650;2023-05-20T00:53:51;96192.06;;;9.92;100.00
11085;BME280;5596;46.826;8.650;2023-05-20T00:56:19;96192.41;;;9.96;100.00
11085;BME280;5596;46.826;8.650;2023-05-20T00:58:47;96194.06;;;9.97;100.00
11085;BME280;5596;46.826;8.650;2023-05-20T01:01:14;96196.75;;;9.97;100.00
11085;BME280;5596;46.826;8.650;2023-05-20T01:03:42;96189.16;;;9.94;100.00
11085;BME280;5596;46.826;8.650;2023-05-20T01:06:09;96192.06;;;9.92;100.00
11085;BME280;5596;46.826;8.650;2023-05-20T01:08:36;96194.63;;;9.87;100.00
11085;BME280;5596;46.826;8.650;2023-05-20T01:11:05;96188.50;;;9.80;100.00
11085;BME280;5596;46.826;8.650;2023-05-20T01:13:35;96177.59;;;9.75;100.00
11085;BME280;5596;46.826;8.650;2023-05-20T01:16:04;96170.31;;;9.75;100.00
11085;BME280;5596;46.826;8.650;2023-05-20T01:18:33;96172.44;;;9.73;100.00
11085;BME280;5596;46.826;8.650;2023-05-20T01:21:01;96171.25;;;9.69;100.00
11085;BME280;5596;46.826;8.650;2023-05-20T01:23:36;96169.59;;;9.68;100.00
11085;BME280;5596;46.826;8.650;2023-05-20T01:26:03;96164.88;;;9.64;100.00
11085;BME280;5596;46.826;8.650;2023-05-20T01:28:30;96169.59;;;9.68;100.00
11085;BME280;5596;46.826;8.650;2023-05-20T01:30:57;96168.31;;;9.71;100.00
11085;BME280;5596;46.826;8.650;2023-05-20T01:33:26;96161.25;;;9.70;100.00
11085;BME280;5596;46.826;8.650;2023-05-20T01:35:56;96167.97;;;9.67;100.00
11085;BME280;5596;46.826;8.650;2023-05-20T01:38:23;96160.75;;;9.61;100.00
11085;BME280;5596;46.826;8.650;2023-05-20T01:40:52;96155.25;;;9.56;100.00
11085;BME280;5596;46.826;8.650;2023-05-20T01:43:19;96151.72;;;9.56;100.00
11085;BME280;5596;46.826;8.650;2023-05-20T01:45:46;96151.06;;;9.60;100.00
11085;BME280;5596;46.826;8.650;2023-05-20T01:48:13;96145.66;;;9.60;100.00
11085;BME280;5596;46.826;8.650;2023-05-20T01:50:41;96149.84;;;9.56;100.00
11085;BME280;5596;46.826;8.650;2023-05-20T01:53:09;96143.88;;;9.54;100.00
11085;BME280;5596;46.826;8.650;2023-05-20T01:55:35;96138.47;;;9.54;100.00
11085;BME280;5596;46.826;8.650;2023-05-20T01:58:04;96145.06;;;9.58;100.00
11085;BME280;5596;46.826;8.650;2023-05-20T02:00:32;96145.28;;;9.57;100.00
11085;BME280;5596;46.826;8.650;2023-05-20T02:02:59;96147.03;;;9.51;100.00
11085;BME280;5596;46.826;8.650;2023-05-20T02:05:27;96141.03;;;9.49;100.00
11085;BME280;5596;46.826;8.650;2023-05-20T02:07:53;96140.59;;;9.52;100.00
11085;BME280;5596;46.826;8.650;2023-05-20T02:10:21;96128.84;;;9.46;100.00
11085;BME280;5596;46.826;8.650;2023-05-20T02:12:48;96129.16;;;9.38;100.00
11085;BME280;5596;46.826;8.650;2023-05-20T02:15:16;96134.63;;;9.32;100.00
11085;BME280;5596;46.826;8.650;2023-05-20T02:17:43;96134.03;;;9.30;100.00
11085;BME280;5596;46.826;8.650;2023-05-20T02:20:10;96123.41;;;9.35;100.00
11085;BME280;5596;46.826;8.650;2023-05-20T02:22:38;96132.53;;;9.34;100.00
11085;BME280;5596;46.826;8.650;2023-05-20T02:25:05;96129.25;;;9.32;100.00
11085;BME280;5596;46.826;8.650;2023-05-20T02:27:32;96127.81;;;9.29;100.00
11085;BME280;5596;46.826;8.650;2023-05-20T02:29:59;96129.47;;;9.30;100.00
11085;BME280;5596;46.826;8.650;2023-05-20T02:32:27;96134.50;;;9.27;100.00
11085;BME280;5596;46.826;8.650;2023-05-20T02:34:54;96128.75;;;9.23;100.00
11085;BME280;5596;46.826;8.650;2023-05-20T02:37:21;96129.13;;;9.27;100.00
11085;BME280;5596;46.826;8.650;2023-05-20T02:39:48;96134.03;;;9.30;100.00
11085;BME280;5596;46.826;8.650;2023-05-20T02:42:14;96126.56;;;9.32;100.00
11085;BME280;5596;46.826;8.650;2023-05-20T02:44:42;96136.06;;;9.34;100.00
11085;BME280;5596;46.826;8.650;2023-05-20T02:47:09;96132.06;;;9.37;100.00
11085;BME280;5596;46.826;8.650;2023-05-20T02:49:37;96132.22;;;9.42;100.00
11085;BME280;5596;46.826;8.650;2023-05-20T02:52:03;96129.06;;;9.45;100.00
11085;BME280;5596;46.826;8.650;2023-05-20T02:54:30;96128.00;;;9.46;100.00
11085;BME280;5596;46.826;8.650;2023-05-20T02:56:57;96126.38;;;9.45;100.00
11085;BME280;5596;46.826;8.650;2023-05-20T02:59:24;96121.81;;;9.45;100.00
11085;BME280;5596;46.826;8.650;2023-05-20T03:01:51;96110.78;;;9.47;100.00
11085;BME280;5596;46.826;8.650;2023-05-20T03:04:17;96112.44;;;9.48;100.00
11085;BME280;5596;46.826;8.650;2023-05-20T03:06:47;96112.88;;;9.45;100.00
11085;BME280;5596;46.826;8.650;2023-05-20T03:09:16;96116.88;;;9.42;100.00
11085;BME280;5596;46.826;8.650;2023-05-20T03:11:43;96123.66;;;9.45;100.00
11085;BME280;5596;46.826;8.650;2023-05-20T03:14:10;96120.53;;;9.48;100.00
11085;BME280;5596;46.826;8.650;2023-05-20T03:16:37;96132.97;;;9.49;100.00
11085;BME280;5596;46.826;8.650;2023-05-20T03:19:04;96124.44;;;9.52;100.00
11085;BME280;5596;46.826;8.650;2023-05-20T03:21:30;96125.47;;;9.51;100.00
11085;BME280;5596;46.826;8.650;2023-05-20T03:23:59;96125.00;;;9.54;100.00
11085;BME280;5596;46.826;8.650;2023-05-20T03:26:26;96116.34;;;9.52;100.00
11085;BME280;5596;46.826;8.650;2023-05-20T03:28:53;96112.34;;;9.55;100.00
11085;BME280;5596;46.826;8.650;2023-05-20T03:31:19;96121.25;;;9.55;100.00
11085;BME280;5596;46.826;8.650;2023-05-20T03:33:47;96127.94;;;9.53;100.00
11085;BME280;5596;46.826;8.650;2023-05-20T03:36:13;96123.00;;;9.49;100.00
11085;BME280;5596;46.826;8.650;2023-05-20T03:38:40;96124.66;;;9.51;100.00
11085;BME280;5596;46.826;8.650;2023-05-20T03:41:08;96129.56;;;9.54;100.00
11085;BME280;5596;46.826;8.650;2023-05-20T03:43:35;96123.34;;;9.53;100.00
11085;BME280;5596;46.826;8.650;2023-05-20T03:46:02;96114.53;;;9.46;100.00
11085;BME280;5596;46.826;8.650;2023-05-20T03:48:29;96117.72;;;9.43;100.00
11085;BME280;5596;46.826;8.650;2023-05-20T03:50:55;96116.66;;;9.44;100.00
11085;BME280;5596;46.826;8.650;2023-05-20T03:53:23;96124.75;;;9.44;100.00
11085;BME280;5596;46.826;8.650;2023-05-20T03:55:50;96119.94;;;9.46;100.00
11085;BME280;5596;46.826;8.650;2023-05-20T03:58:19;96118.88;;;9.47;100.00
11085;BME280;5596;46.826;8.650;2023-05-20T04:00:46;96114.91;;;9.49;100.00
11085;BME280;5596;46.826;8.650;2023-05-20T04:03:14;96114.47;;;9.53;100.00
11085;BME280;5596;46.826;8.650;2023-05-20T04:05:40;96114.53;;;9.46;100.00
11085;BME280;5596;46.826;8.650;2023-05-20T04:08:16;96123.53;;;9.40;100.00
11085;BME280;5596;46.826;8.650;2023-05-20T04:10:44;96122.59;;;9.34;100.00
11085;BME280;5596;46.826;8.650;2023-05-20T04:13:11;96124.53;;;9.27;100.00
11085;BME280;5596;46.826;8.650;2023-05-20T04:15:40;96131.13;;;9.31;100.00
11085;BME280;5596;46.826;8.650;2023-05-20T04:18:07;96128.09;;;9.39;100.00
11085;BME280;5596;46.826;8.650;2023-05-20T04:20:34;96122.84;;;9.44;100.00
11085;BME280;5596;46.826;8.650;2023-05-20T04:23:01;96130.13;;;9.44;100.00
11085;BME280;5596;46.826;8.650;2023-05-20T04:25:28;96129.53;;;9.42;100.00
11085;BME280;5596;46.826;8.650;2023-05-20T04:27:55;96126.38;;;9.45;100.00
11085;BME280;5596;46.826;8.650;2023-05-20T04:30:22;96123.81;;;9.50;100.00
11085;BME280;5596;46.826;8.650;2023-05-20T04:32:50;96124.28;;;9.47;100.00
11085;BME280;5596;46.826;8.650;2023-05-20T04:35:18;96119.94;;;9.46;100.00
11085;BME280;5596;46.826;8.650;2023-05-20T04:37:48;96128.00;;;9.46;100.00
11085;BME280;5596;46.826;8.650;2023-05-20T04:40:18;96130.47;;;9.47;100.00
11085;BME280;5596;46.826;8.650;2023-05-20T04:42:45;96124.66;;;9.51;100.00
11085;BME280;5596;46.826;8.650;2023-05-20T04:45:12;96121.81;;;9.45;100.00
11085;BME280;5596;46.826;8.650;2023-05-20T04:47:40;96123.44;;;9.46;100.00
11085;BME280;5596;46.826;8.650;2023-05-20T04:50:10;96118.44;;;9.50;100.00
11085;BME280;5596;46.826;8.650;2023-05-20T04:52:40;96123.28;;;9.60;100.00
11085;BME280;5596;46.826;8.650;2023-05-20T04:55:07;96125.28;;;9.64;100.00
11085;BME280;5596;46.826;8.650;2023-05-20T04:57:35;96124.00;;;9.67;100.00
11085;BME280;5596;46.826;8.650;2023-05-20T05:00:05;96109.00;;;9.71;100.00
11085;BME280;5596;46.826;8.650;2023-05-20T05:02:33;96112.50;;;9.71;100.00
11085;BME280;5596;46.826;8.650;2023-05-20T05:05:00;96105.84;;;9.74;100.00
11085;BME280;5596;46.826;8.650;2023-05-20T05:07:29;96109.75;;;9.78;100.00
11085;BME280;5596;46.826;8.650;2023-05-20T05:09:56;96109.47;;;9.79;100.00
11085;BME280;5596;46.826;8.650;2023-05-20T05:12:23;96106.22;;;9.89;100.00
11085;BME280;5596;46.826;8.650;2023-05-20T05:14:49;96101.19;;;9.93;100.00
11085;BME280;5596;46.826;8.650;2023-05-20T05:17:16;96109.06;;;9.94;100.00
11085;BME280;5596;46.826;8.650;2023-05-20T05:19:43;96110.94;;;9.94;100.00
11085;BME280;5596;46.826;8.650;2023-05-20T05:22:10;96108.25;;;9.94;100.00
11085;BME280;5596;46.826;8.650;2023-05-20T05:24:39;96107.66;;;9.92;100.00
11085;BME280;5596;46.826;8.650;2023-05-20T05:27:06;96098.72;;;9.91;100.00
11085;BME280;5596;46.826;8.650;2023-05-20T05:29:33;96093.44;;;9.96;100.00
11085;BME280;5596;46.826;8.650;2023-05-20T05:32:00;96088.53;;;10.05;100.00
11085;BME280;5596;46.826;8.650;2023-05-20T05:34:27;96087.03;;;10.09;100.00
11085;BME280;5596;46.826;8.650;2023-05-20T05:36:54;96092.06;;;10.17;100.00
11085;BME280;5596;46.826;8.650;2023-05-20T05:39:21;96090.34;;;10.22;100.00
11085;BME280;5596;46.826;8.650;2023-05-20T05:41:49;96089.75;;;10.32;100.00
11085;BME280;5596;46.826;8.650;2023-05-20T05:44:17;96083.53;;;10.43;100.00
11085;BME280;5596;46.826;8.650;2023-05-20T05:46:45;96069.56;;;10.46;100.00
11085;BME280;5596;46.826;8.650;2023-05-20T05:49:11;96070.28;;;10.53;100.00
11085;BME280;5596;46.826;8.650;2023-05-20T05:51:38;96068.63;;;10.52;100.00
11085;BME280;5596;46.826;8.650;2023-05-20T05:54:05;96075.91;;;10.52;100.00
11085;BME280;5596;46.826;8.650;2023-05-20T05:56:33;96074.84;;;10.53;100.00
11085;BME280;5596;46.826;8.650;2023-05-20T05:59:01;96068.13;;;10.55;100.00
11085;BME280;5596;46.826;8.650;2023-05-20T06:01:28;96071.44;;;10.57;100.00
11085;BME280;5596;46.826;8.650;2023-05-20T06:03:55;96071.78;;;10.61;100.00
11085;BME280;5596;46.826;8.650;2023-05-20T06:06:22;96071.31;;;10.64;100.00
11085;BME280;5596;46.826;8.650;2023-05-20T06:08:50;96075.88;;;10.63;100.00
11085;BME280;5596;46.826;8.650;2023-05-20T06:11:17;96075.09;;;10.63;100.00
11085;BME280;5596;46.826;8.650;2023-05-20T06:13:43;96066.72;;;10.65;100.00
11085;BME280;5596;46.826;8.650;2023-05-20T06:16:12;96071.66;;;10.68;100.00
11085;BME280;5596;46.826;8.650;2023-05-20T06:18:39;96079.53;;;10.69;100.00
11085;BME280;5596;46.826;8.650;2023-05-20T06:21:07;96072.03;;;10.71;100.00
11085;BME280;5596;46.826;8.650;2023-05-20T06:23:33;96072.56;;;10.73;100.00
11085;BME280;5596;46.826;8.650;2023-05-20T06:26:03;96072.34;;;10.75;100.00
11085;BME280;5596;46.826;8.650;2023-05-20T06:28:30;96078.09;;;10.78;100.00
11085;BME280;5596;46.826;8.650;2023-05-20T06:30:57;96069.28;;;10.83;100.00
11085;BME280;5596;46.826;8.650;2023-05-20T06:33:27;96065.53;;;10.84;100.00
11085;BME280;5596;46.826;8.650;2023-05-20T06:35:58;96065.88;;;10.87;100.00
11085;BME280;5596;46.826;8.650;2023-05-20T06:38:26;96065.16;;;10.92;100.00
11085;BME280;5596;46.826;8.650;2023-05-20T06:40:52;96061.97;;;10.95;100.00
11085;BME280;5596;46.826;8.650;2023-05-20T06:43:19;96055.13;;;11.04;100.00
11085;BME280;5596;46.826;8.650;2023-05-20T06:45:52;96055.81;;;11.11;100.00
11085;BME280;5596;46.826;8.650;2023-05-20T06:48:24;96055.81;;;11.11;100.00
11085;BME280;5596;46.826;8.650;2023-05-20T06:50:52;96052.13;;;11.17;100.00
11085;BME280;5596;46.826;8.650;2023-05-20T06:53:19;96057.53;;;11.17;100.00
11085;BME280;5596;46.826;8.650;2023-05-20T06:55:46;96057.66;;;11.22;100.00
11085;BME280;5596;46.826;8.650;2023-05-20T06:58:13;96063.53;;;11.19;100.00
11085;BME280;5596;46.826;8.650;2023-05-20T07:00:41;96058.88;;;11.31;100.00
11085;BME280;5596;46.826;8.650;2023-05-20T07:03:08;96060.84;;;11.48;100.00
11085;BME280;5596;46.826;8.650;2023-05-20T07:05:35;96053.69;;;11.58;100.00
11085;BME280;5596;46.826;8.650;2023-05-20T07:08:04;96055.19;;;11.66;100.00
11085;BME280;5596;46.826;8.650;2023-05-20T07:10:32;96049.06;;;11.70;100.00
11085;BME280;5596;46.826;8.650;2023-05-20T07:12:59;96058.69;;;11.78;100.00
11085;BME280;5596;46.826;8.650;2023-05-20T07:15:26;96059.75;;;11.77;100.00
11085;BME280;5596;46.826;8.650;2023-05-20T07:17:53;96057.47;;;11.74;100.00
11085;BME280;5596;46.826;8.650;2023-05-20T07:20:20;96051.72;;;11.82;100.00
11085;BME280;5596;46.826;8.650;2023-05-20T07:22:47;96060.81;;;11.93;100.00
11085;BME280;5596;46.826;8.650;2023-05-20T07:25:38;96054.34;;;11.94;100.00
11085;BME280;5596;46.826;8.650;2023-05-20T07:28:05;96055.75;;;11.96;100.00
11085;BME280;5596;46.826;8.650;2023-05-20T07:30:32;96051.06;;;12.08;100.00
11085;BME280;5596;46.826;8.650;2023-05-20T07:33:18;96049.56;;;12.18;100.00
11085;BME280;5596;46.826;8.650;2023-05-20T07:35:46;96040.38;;;12.19;100.00
11085;BME280;5596;46.826;8.650;2023-05-20T07:38:13;96040.53;;;12.29;100.00
11085;BME280;5596;46.826;8.650;2023-05-20T07:40:43;96033.16;;;12.41;100.00
11085;BME280;5596;46.826;8.650;2023-05-20T07:43:09;96035.44;;;12.49;100.00
11085;BME280;5596;46.826;8.650;2023-05-20T07:45:36;96034.09;;;12.51;100.00
11085;BME280;5596;46.826;8.650;2023-05-20T07:48:05;96033.16;;;12.63;100.00
11085;BME280;5596;46.826;8.650;2023-05-20T07:50:33;96025.44;;;12.71;100.00
11085;BME280;5596;46.826;8.650;2023-05-20T07:53:00;96021.78;;;12.82;100.00
11085;BME280;5596;46.826;8.650;2023-05-20T07:55:29;96013.50;;;12.94;100.00
11085;BME280;5596;46.826;8.650;2023-05-20T07:57:58;96020.19;;;13.08;100.00
11085;BME280;5596;46.826;8.650;2023-05-20T08:00:25;96016.81;;;13.18;100.00
11085;BME280;5596;46.826;8.650;2023-05-20T08:02:52;96024.56;;;13.36;100.00
11085;BME280;5596;46.826;8.650;2023-05-20T08:05:26;96012.84;;;13.52;100.00
11085;BME280;5596;46.826;8.650;2023-05-20T08:07:53;96014.97;;;13.50;100.00
11085;BME280;5596;46.826;8.650;2023-05-20T08:10:23;96021.28;;;13.61;100.00
11085;BME280;5596;46.826;8.650;2023-05-20T08:12:51;96019.16;;;13.63;100.00
11085;BME280;5596;46.826;8.650;2023-05-20T08:15:19;96012.25;;;13.77;100.00
11085;BME280;5596;46.826;8.650;2023-05-20T08:17:47;96013.41;;;13.86;100.00
11085;BME280;5596;46.826;8.650;2023-05-20T08:20:14;96016.38;;;13.85;100.00
11085;BME280;5596;46.826;8.650;2023-05-20T08:22:41;96012.31;;;13.87;100.00
11085;BME280;5596;46.826;8.650;2023-05-20T08:25:08;96011.22;;;13.88;100.00
11085;BME280;5596;46.826;8.650;2023-05-20T08:27:36;96007.78;;;13.98;100.00
11085;BME280;5596;46.826;8.650;2023-05-20T08:30:04;96008.47;;;14.15;100.00
11085;BME280;5596;46.826;8.650;2023-05-20T08:32:33;96000.06;;;14.22;100.00
11085;BME280;5596;46.826;8.650;2023-05-20T08:35:00;96003.13;;;14.30;100.00
11085;BME280;5596;46.826;8.650;2023-05-20T08:37:28;96007.00;;;14.39;100.00
11085;BME280;5596;46.826;8.650;2023-05-20T08:39:55;95995.66;;;14.48;100.00
11085;BME280;5596;46.826;8.650;2023-05-20T08:42:21;95991.84;;;14.44;100.00
11085;BME280;5596;46.826;8.650;2023-05-20T08:44:49;95999.19;;;14.48;100.00
11085;BME280;5596;46.826;8.650;2023-05-20T08:47:18;96001.91;;;14.48;100.00
11085;BME280;5596;46.826;8.650;2023-05-20T08:49:47;95992.72;;;14.54;100.00
11085;BME280;5596;46.826;8.650;2023-05-20T08:52:15;95984.28;;;14.56;100.00
11085;BME280;5596;46.826;8.650;2023-05-20T08:54:43;95999.00;;;14.65;100.00
11085;BME280;5596;46.826;8.650;2023-05-20T08:57:11;95996.78;;;14.57;100.00
11085;BME280;5596;46.826;8.650;2023-05-20T08:59:39;95989.69;;;14.51;100.00
11085;BME280;5596;46.826;8.650;2023-05-20T09:02:06;95995.66;;;14.48;100.00
11085;BME280;5596;46.826;8.650;2023-05-20T09:04:34;95984.78;;;14.48;100.00
11085;BME280;5596;46.826;8.650;2023-05-20T09:07:03;95989.69;;;14.46;100.00
11085;BME280;5596;46.826;8.650;2023-05-20T09:09:31;95993.66;;;14.38;100.00
11085;BME280;5596;46.826;8.650;2023-05-20T09:11:58;95993.44;;;14.39;100.00
11085;BME280;5596;46.826;8.650;2023-05-20T09:14:25;96002.16;;;14.42;100.00
11085;BME280;5596;46.826;8.650;2023-05-20T09:16:52;95998.59;;;14.41;100.00
11085;BME280;5596;46.826;8.650;2023-05-20T09:19:20;95994.00;;;14.42;100.00
11085;BME280;5596;46.826;8.650;2023-05-20T09:21:47;95986.16;;;14.45;100.00
11085;BME280;5596;46.826;8.650;2023-05-20T09:24:15;95995.66;;;14.48;100.00
11085;BME280;5596;46.826;8.650;2023-05-20T09:26:45;95994.63;;;14.54;100.00
11085;BME280;5596;46.826;8.650;2023-05-20T09:29:11;95994.69;;;14.69;100.00
11085;BME280;5596;46.826;8.650;2023-05-20T09:31:38;95992.84;;;14.80;100.00
11085;BME280;5596;46.826;8.650;2023-05-20T09:34:05;95996.78;;;14.57;100.00
11085;BME280;5596;46.826;8.650;2023-05-20T09:36:32;96005.00;;;14.62;100.00
11085;BME280;5596;46.826;8.650;2023-05-20T09:39:01;96003.34;;;14.61;100.00
11085;BME280;5596;46.826;8.650;2023-05-20T09:41:32;95999.31;;;14.68;100.00
11085;BME280;5596;46.826;8.650;2023-05-20T09:43:59;96000.19;;;14.79;100.00
11085;BME280;5596;46.826;8.650;2023-05-20T09:46:26;95992.84;;;14.85;100.00
11085;BME280;5596;46.826;8.650;2023-05-20T09:48:54;95998.81;;;14.82;100.00
11085;BME280;5596;46.826;8.650;2023-05-20T09:51:20;95998.00;;;14.81;100.00
11085;BME280;5596;46.826;8.650;2023-05-20T09:53:47;96006.97;;;14.82;100.00
11085;BME280;5596;46.826;8.650;2023-05-20T09:56:14;95990.91;;;14.80;100.00
11085;BME280;5596;46.826;8.650;2023-05-20T09:58:42;96000.19;;;14.84;100.00
11085;BME280;5596;46.826;8.650;2023-05-20T10:01:10;95999.69;;;14.92;100.00
11085;BME280;5596;46.826;8.650;2023-05-20T10:03:37;95993.38;;;14.76;100.00
11085;BME280;5596;46.826;8.650;2023-05-20T10:06:10;96001.25;;;14.78;100.00
11085;BME280;5596;46.826;8.650;2023-05-20T10:08:46;95999.56;;;14.72;100.00
11085;BME280;5596;46.826;8.650;2023-05-20T10:11:18;95996.91;;;14.77;100.00
11085;BME280;5596;46.826;8.650;2023-05-20T10:14:02;96005.31;;;14.81;100.00
11085;BME280;5596;46.826;8.650;2023-05-20T10:16:33;96003.47;;;14.86;100.00
11085;BME280;5596;46.826;8.650;2023-05-20T10:19:06;96002.38;;;14.87;100.00
11085;BME280;5596;46.826;8.650;2023-05-20T10:21:36;96010.28;;;14.94;100.00
11085;BME280;5596;46.826;8.650;2023-05-20T10:24:06;96010.50;;;14.82;100.00
11085;BME280;5596;46.826;8.650;2023-05-20T10:26:33;96009.94;;;14.75;100.00
11085;BME280;5596;46.826;8.650;2023-05-20T10:29:02;96007.47;;;14.73;100.00
11085;BME280;5596;46.826;8.650;2023-05-20T10:31:43;96008.84;;;14.71;100.00
11085;BME280;5596;46.826;8.650;2023-05-20T10:34:13;96001.72;;;14.65;100.00
11085;BME280;5596;46.826;8.650;2023-05-20T10:36:43;96003.41;;;14.71;100.00
11085;BME280;5596;46.826;8.650;2023-05-20T10:39:13;96002.91;;;14.79;100.00
11085;BME280;5596;46.826;8.650;2023-05-20T10:41:41;96007.28;;;14.90;100.00
11085;BME280;5596;46.826;8.650;2023-05-20T10:44:09;96005.69;;;14.99;100.00
11085;BME280;5596;46.826;8.650;2023-05-20T10:46:36;96006.75;;;14.98;100.00
11085;BME280;5596;46.826;8.650;2023-05-20T10:49:03;96000.50;;;14.98;100.00
11085;BME280;5596;46.826;8.650;2023-05-20T10:51:30;95992.91;;;14.95;100.00
11085;BME280;5596;46.826;8.650;2023-05-20T10:53:57;95987.72;;;14.98;100.00
11085;BME280;5596;46.826;8.650;2023-05-20T10:56:25;95982.88;;;15.05;100.00
11085;BME280;5596;46.826;8.650;2023-05-20T10:58:53;95991.31;;;15.09;100.00
11085;BME280;5596;46.826;8.650;2023-05-20T11:01:24;95995.41;;;15.17;100.00
11085;BME280;5596;46.826;8.650;2023-05-20T11:03:51;95987.00;;;15.28;100.00
11085;BME280;5596;46.826;8.650;2023-05-20T11:06:24;95992.19;;;15.35;100.00
11085;BME280;5596;46.826;8.650;2023-05-20T11:08:51;95988.69;;;15.44;100.00
11085;BME280;5596;46.826;8.650;2023-05-20T11:11:18;95987.31;;;15.42;100.00
11085;BME280;5596;46.826;8.650;2023-05-20T11:13:49;95985.13;;;15.44;100.00
11085;BME280;5596;46.826;8.650;2023-05-20T11:16:16;95983.50;;;15.43;100.00
11085;BME280;5596;46.826;8.650;2023-05-20T11:18:44;95986.78;;;15.45;100.00
11085;BME280;5596;46.826;8.650;2023-05-20T11:21:13;95982.41;;;15.49;100.00
11085;BME280;5596;46.826;8.650;2023-05-20T11:23:40;95977.03;;;15.59;100.00
11085;BME280;5596;46.826;8.650;2023-05-20T11:26:07;95981.91;;;15.57;100.00
11085;BME280;5596;46.826;8.650;2023-05-20T11:28:34;95976.97;;;15.39;100.00
11085;BME280;5596;46.826;8.650;2023-05-20T11:31:01;95968.25;;;15.37;100.00
11085;BME280;5596;46.826;8.650;2023-05-20T11:33:28;95973.50;;;15.54;100.00
11085;BME280;5596;46.826;8.650;2023-05-20T11:35:56;95964.25;;;15.70;100.00
11085;BME280;5596;46.826;8.650;2023-05-20T11:38:24;95955.25;;;15.69;100.00
11085;BME280;5596;46.826;8.650;2023-05-20T11:40:52;95958.25;;;15.78;100.00
11085;BME280;5596;46.826;8.650;2023-05-20T11:43:19;95952.53;;;15.84;100.00
11085;BME280;5596;46.826;8.650;2023-05-20T11:45:46;95948.72;;;15.85;100.00
11085;BME280;5596;46.826;8.650;2023-05-20T11:48:13;95949.25;;;15.82;100.00
11085;BME280;5596;46.826;8.650;2023-05-20T11:50:42;95942.22;;;15.81;100.00
11085;BME280;5596;46.826;8.650;2023-05-20T11:53:13;95940.03;;;15.78;100.00
11085;BME280;5596;46.826;8.650;2023-05-20T11:55:43;95936.75;;;15.81;100.00
11085;BME280;5596;46.826;8.650;2023-05-20T11:58:11;95929.38;;;15.92;100.00
11085;BME280;5596;46.826;8.650;2023-05-20T12:00:40;95939.72;;;16.15;100.00
11085;BME280;5596;46.826;8.650;2023-05-20T12:03:07;95935.59;;;16.28;100.00
11085;BME280;5596;46.826;8.650;2023-05-20T12:05:34;95933.94;;;16.37;100.00
11085;BME280;5596;46.826;8.650;2023-05-20T12:08:00;95923.06;;;16.32;100.00
11085;BME280;5596;46.826;8.650;2023-05-20T12:10:29;95925.78;;;16.32;100.00
11085;BME280;5596;46.826;8.650;2023-05-20T12:12:56;95927.94;;;16.35;100.00
11085;BME280;5596;46.826;8.650;2023-05-20T12:15:23;95929.84;;;16.40;100.00
11085;BME280;5596;46.826;8.650;2023-05-20T12:17:50;95922.19;;;16.47;100.00
11085;BME280;5596;46.826;8.650;2023-05-20T12:20:19;95922.47;;;16.45;100.00
11085;BME280;5596;46.826;8.650;2023-05-20T12:22:47;95926.81;;;16.46;100.00
11085;BME280;5596;46.826;8.650;2023-05-20T12:25:14;95923.34;;;16.20;100.00
11085;BME280;5596;46.826;8.650;2023-05-20T12:27:42;95924.72;;;16.18;100.00
11085;BME280;5596;46.826;8.650;2023-05-20T12:30:13;95922.25;;;16.16;100.00
11085;BME280;5596;46.826;8.650;2023-05-20T12:32:40;95923.06;;;16.32;100.00
11085;BME280;5596;46.826;8.650;2023-05-20T12:35:08;95918.09;;;16.44;100.00
11085;BME280;5596;46.826;8.650;2023-05-20T12:37:35;95927.34;;;16.63;100.00
11085;BME280;5596;46.826;8.650;2023-05-20T12:40:02;95924.00;;;16.82;100.00
11085;BME280;5596;46.826;8.650;2023-05-20T12:42:33;95922.91;;;16.78;100.00
11085;BME280;5596;46.826;8.650;2023-05-20T12:45:01;95923.13;;;16.91;100.00
11085;BME280;5596;46.826;8.650;2023-05-20T12:47:28;95920.91;;;16.93;100.00
11085;BME280;5596;46.826;8.650;2023-05-20T12:49:55;95931.06;;;16.88;100.00
11085;BME280;5596;46.826;8.650;2023-05-20T12:52:22;95928.88;;;16.90;100.00
11085;BME280;5596;46.826;8.650;2023-05-20T12:54:49;95926.97;;;16.90;100.00
11085;BME280;5596;46.826;8.650;2023-05-20T12:57:16;95927.19;;;16.94;100.00
11085;BME280;5596;46.826;8.650;2023-05-20T12:59:43;95940.81;;;16.94;100.00
11085;BME280;5596;46.826;8.650;2023-05-20T13:02:11;95929.97;;;16.89;100.00
11085;BME280;5596;46.826;8.650;2023-05-20T13:04:38;95931.84;;;16.93;100.00
11085;BME280;5596;46.826;8.650;2023-05-20T13:07:05;95935.69;;;16.92;100.00
11085;BME280;5596;46.826;8.650;2023-05-20T13:09:31;95927.72;;;17.01;100.00